Meteo Giornale » Osservazioni meteo Stati Uniti (USA) » Salem McNary Fld
ore: 07:56 - Osservazioni Meteo Salem McNary Fld
Lat. 44° 54' N Lon. 122° 59' W Alt. 64 metri s.l.m.
15 °C
Coperto
Temp. 24 Ore
14 °C
29 °C
Sud
11.1 Km/h
Dew point 12 °C
Umidità 82 %
Visibilità 10 Km
Il sole sorge alle ore 06:34
Il sole tramonta alle ore 19:49
| Data e Ora | Cielo e Fenomeni | T °C | DP °C | Um. % | Pres. hPa | Vis. km | Vento km/h | |
|---|---|---|---|---|---|---|---|---|
| Oggi h: 07:56 | Coperto | 15 | 12 | 82 | 1011 | 10 | S 11.1 | |
| Oggi h: 07:33 | Coperto | 16 | 12 | 77 | 1011 | 10 | S 14.8 | |
| Oggi h: 06:56 | Coperto | 16 | 12 | 77 | 1011 | 10 | SE 11.1 | |
| Oggi h: 05:56 | Coperto | 16 | 12 | 77 | 1011 | 10 | S/SE 7.4 | |
| Oggi h: 04:56 | Coperto | 16 | 12 | 77 | 1011 | 10 | N 5.5 | |
| Oggi h: 03:56 | Coperto | 15 | 12 | 82 | 1011 | 10 | N 0 | |
| Oggi h: 03:25 | Coperto | 14 | 12 | 87 | 1010 | 10 | N 5.5 | |
| Oggi h: 03:06 | Molto Nuvoloso | 14 | 11 | 82 | 1010 | 10 | S 11.1 | |
| Oggi h: 02:56 | Coperto | 14 | 12 | 87 | 1011 | 10 | S 13 | |
| Oggi h: 02:38 | Molto Nuvoloso | 14 | 11 | 82 | 1011 | 10 | S 9.3 | |
| Oggi h: 01:56 | Sereno | 14 | 11 | 82 | 1010 | 10 | S 7.4 | |
| Oggi h: 00:56 | Sereno | 14 | 11 | 82 | 1010 | 10 | S/SE 9.3 | |
| Ieri h: 23:56 | Sereno | 16 | 12 | 77 | 1010 | 10 | S/SO 11.1 | |
| Ieri h: 22:56 | Sereno | 16 | 12 | 77 | 1010 | 10 | SO 11.1 | |
| Ieri h: 21:56 | Sereno | 18 | 12 | 67 | 1009 | 10 | SO 7.4 | |
| Ieri h: 20:56 | Sereno | 19 | 12 | 63 | 1008 | 10 | N 7.4 | |
| Ieri h: 19:56 | Foschia | 22 | 11 | 49 | 1007 | 10 | O 14.8 | |
| Ieri h: 18:56 | Foschia | 26 | 12 | 41 | 1007 | 10 | O 16.7 | |
| Ieri h: 17:56 | Foschia | 29 | 9 | 28 | 1006 | 10 | N 0 | |
| Ieri h: 16:56 | Foschia | 29 | 8 | 26 | 1007 | 10 | N 5.5 | |
| Ieri h: 15:56 | Sereno | 28 | 10 | 32 | 1007 | 10 | NO 9.3 | |
| Ieri h: 14:56 | Foschia | 27 | 11 | 36 | 1007 | 10 | NO 7.4 | |
| Ieri h: 13:56 | Sereno | 25 | 11 | 41 | 1008 | 10 | NO 9.3 | |
| Ieri h: 12:56 | Foschia | 23 | 11 | 46 | 1009 | 10 | N 0 | |
| Ieri h: 11:56 | Foschia | 20 | 11 | 56 | 1010 | 10 | N 0 | |
| Ieri h: 10:56 | Poco Nuvoloso | 19 | 11 | 59 | 1010 | 10 | N 7.4 | |
| Ieri h: 09:56 | Coperto | 17 | 11 | 67 | 1011 | 10 | N 0 | |
| Ieri h: 08:56 | Sereno | 16 | 11 | 72 | 1011 | 10 | N 5.5 | |



